sensor_id;sensor_type;location;lat;lon;timestamp;temperature;humidity
52709;DHT22;38606;52.986;6.980;2022-07-24T00:00:59;16.20;99.90
52709;DHT22;38606;52.986;6.980;2022-07-24T00:03:25;16.10;99.90
52709;DHT22;38606;52.986;6.980;2022-07-24T00:05:52;16.00;99.90
52709;DHT22;38606;52.986;6.980;2022-07-24T00:08:18;16.10;99.90
52709;DHT22;38606;52.986;6.980;2022-07-24T00:10:44;15.90;99.90
52709;DHT22;38606;52.986;6.980;2022-07-24T00:13:10;16.00;99.90
52709;DHT22;38606;52.986;6.980;2022-07-24T00:15:35;15.90;99.90
52709;DHT22;38606;52.986;6.980;2022-07-24T00:18:01;15.90;99.90
52709;DHT22;38606;52.986;6.980;2022-07-24T00:20:27;15.80;99.90
52709;DHT22;38606;52.986;6.980;2022-07-24T00:22:52;15.90;99.90
52709;DHT22;38606;52.986;6.980;2022-07-24T00:25:18;16.00;99.90
52709;DHT22;38606;52.986;6.980;2022-07-24T00:27:44;16.20;99.90
52709;DHT22;38606;52.986;6.980;2022-07-24T00:30:10;16.00;99.90
52709;DHT22;38606;52.986;6.980;2022-07-24T00:32:36;16.00;99.90
52709;DHT22;38606;52.986;6.980;2022-07-24T00:35:01;15.70;99.90
52709;DHT22;38606;52.986;6.980;2022-07-24T00:37:27;16.10;99.90
52709;DHT22;38606;52.986;6.980;2022-07-24T00:39:53;16.00;99.90
52709;DHT22;38606;52.986;6.980;2022-07-24T00:42:18;15.90;99.90
52709;DHT22;38606;52.986;6.980;2022-07-24T00:44:44;16.00;99.90
52709;DHT22;38606;52.986;6.980;2022-07-24T00:47:10;16.00;99.90
52709;DHT22;38606;52.986;6.980;2022-07-24T00:49:36;15.80;99.90
52709;DHT22;38606;52.986;6.980;2022-07-24T00:52:02;15.60;99.90
52709;DHT22;38606;52.986;6.980;2022-07-24T00:54:27;15.90;99.90
52709;DHT22;38606;52.986;6.980;2022-07-24T00:56:54;15.90;99.90
52709;DHT22;38606;52.986;6.980;2022-07-24T00:59:20;15.90;99.90
52709;DHT22;38606;52.986;6.980;2022-07-24T01:01:47;15.70;99.90
52709;DHT22;38606;52.986;6.980;2022-07-24T01:04:13;15.90;99.90
52709;DHT22;38606;52.986;6.980;2022-07-24T01:06:41;15.60;99.90
52709;DHT22;38606;52.986;6.980;2022-07-24T01:09:07;15.70;99.90
52709;DHT22;38606;52.986;6.980;2022-07-24T01:11:33;15.70;99.90
52709;DHT22;38606;52.986;6.980;2022-07-24T01:13:59;15.80;99.90
52709;DHT22;38606;52.986;6.980;2022-07-24T01:16:25;18.00;99.90
52709;DHT22;38606;52.986;6.980;2022-07-24T01:18:51;15.90;99.90
52709;DHT22;38606;52.986;6.980;2022-07-24T01:21:16;15.60;99.90
52709;DHT22;38606;52.986;6.980;2022-07-24T01:23:42;15.80;99.90
52709;DHT22;38606;52.986;6.980;2022-07-24T01:26:08;15.40;99.90
52709;DHT22;38606;52.986;6.980;2022-07-24T01:28:35;15.90;99.90
52709;DHT22;38606;52.986;6.980;2022-07-24T01:31:01;15.70;99.90
52709;DHT22;38606;52.986;6.980;2022-07-24T01:33:26;15.70;99.90
52709;DHT22;38606;52.986;6.980;2022-07-24T01:35:52;15.40;99.90
52709;DHT22;38606;52.986;6.980;2022-07-24T01:38:18;15.80;99.90
52709;DHT22;38606;52.986;6.980;2022-07-24T01:40:44;15.70;99.90
52709;DHT22;38606;52.986;6.980;2022-07-24T01:43:10;15.40;99.90
52709;DHT22;38606;52.986;6.980;2022-07-24T01:45:35;15.80;99.90
52709;DHT22;38606;52.986;6.980;2022-07-24T01:48:02;15.90;99.90
52709;DHT22;38606;52.986;6.980;2022-07-24T01:50:28;15.40;99.90
52709;DHT22;38606;52.986;6.980;2022-07-24T01:52:54;15.70;99.90
52709;DHT22;38606;52.986;6.980;2022-07-24T01:55:25;15.50;99.90
52709;DHT22;38606;52.986;6.980;2022-07-24T01:57:51;15.50;99.90
52709;DHT22;38606;52.986;6.980;2022-07-24T02:00:17;15.70;99.90
52709;DHT22;38606;52.986;6.980;2022-07-24T02:02:44;15.40;99.90
52709;DHT22;38606;52.986;6.980;2022-07-24T02:05:14;15.50;99.90
52709;DHT22;38606;52.986;6.980;2022-07-24T02:07:40;15.70;99.90
52709;DHT22;38606;52.986;6.980;2022-07-24T02:10:07;15.60;99.90
52709;DHT22;38606;52.986;6.980;2022-07-24T02:12:33;15.40;99.90
52709;DHT22;38606;52.986;6.980;2022-07-24T02:14:59;15.50;99.90
52709;DHT22;38606;52.986;6.980;2022-07-24T02:17:25;16.50;99.90
52709;DHT22;38606;52.986;6.980;2022-07-24T02:19:50;15.50;99.90
52709;DHT22;38606;52.986;6.980;2022-07-24T02:22:16;15.50;99.90
52709;DHT22;38606;52.986;6.980;2022-07-24T02:24:42;15.70;99.90
52709;DHT22;38606;52.986;6.980;2022-07-24T02:27:07;15.60;99.90
52709;DHT22;38606;52.986;6.980;2022-07-24T02:29:33;15.60;99.90
52709;DHT22;38606;52.986;6.980;2022-07-24T02:31:59;15.50;99.90
52709;DHT22;38606;52.986;6.980;2022-07-24T02:34:25;15.60;99.90
52709;DHT22;38606;52.986;6.980;2022-07-24T02:36:52;15.50;99.90
52709;DHT22;38606;52.986;6.980;2022-07-24T02:39:18;15.70;99.90
52709;DHT22;38606;52.986;6.980;2022-07-24T02:41:43;13.20;99.90
52709;DHT22;38606;52.986;6.980;2022-07-24T02:44:09;15.60;99.90
52709;DHT22;38606;52.986;6.980;2022-07-24T02:46:36;15.20;99.90
52709;DHT22;38606;52.986;6.980;2022-07-24T02:49:01;15.50;99.90
52709;DHT22;38606;52.986;6.980;2022-07-24T02:51:27;15.40;99.90
52709;DHT22;38606;52.986;6.980;2022-07-24T02:53:53;15.40;99.90
52709;DHT22;38606;52.986;6.980;2022-07-24T02:56:18;15.20;99.90
52709;DHT22;38606;52.986;6.980;2022-07-24T02:58:44;15.50;99.90
52709;DHT22;38606;52.986;6.980;2022-07-24T03:01:10;15.20;99.90
52709;DHT22;38606;52.986;6.980;2022-07-24T03:03:36;15.40;99.90
52709;DHT22;38606;52.986;6.980;2022-07-24T03:06:01;15.30;99.90
52709;DHT22;38606;52.986;6.980;2022-07-24T03:08:27;15.20;99.90
52709;DHT22;38606;52.986;6.980;2022-07-24T03:10:53;15.30;99.90
52709;DHT22;38606;52.986;6.980;2022-07-24T03:13:18;15.60;99.90
52709;DHT22;38606;52.986;6.980;2022-07-24T03:15:44;15.40;99.90
52709;DHT22;38606;52.986;6.980;2022-07-24T03:18:10;15.10;99.90
52709;DHT22;38606;52.986;6.980;2022-07-24T03:20:35;15.40;99.90
52709;DHT22;38606;52.986;6.980;2022-07-24T03:23:01;15.30;99.90
52709;DHT22;38606;52.986;6.980;2022-07-24T03:25:27;15.20;99.90
52709;DHT22;38606;52.986;6.980;2022-07-24T03:27:53;15.60;99.90
52709;DHT22;38606;52.986;6.980;2022-07-24T03:30:19;15.60;99.90
52709;DHT22;38606;52.986;6.980;2022-07-24T03:32:45;15.20;99.90
52709;DHT22;38606;52.986;6.980;2022-07-24T03:35:11;15.20;99.90
52709;DHT22;38606;52.986;6.980;2022-07-24T03:37:37;15.40;99.90
52709;DHT22;38606;52.986;6.980;2022-07-24T03:40:04;16.60;99.90
52709;DHT22;38606;52.986;6.980;2022-07-24T03:42:30;15.30;99.90
52709;DHT22;38606;52.986;6.980;2022-07-24T03:44:55;15.50;99.90
52709;DHT22;38606;52.986;6.980;2022-07-24T03:47:21;15.30;99.90
52709;DHT22;38606;52.986;6.980;2022-07-24T03:49:47;15.70;99.90
52709;DHT22;38606;52.986;6.980;2022-07-24T03:52:12;15.50;99.90
52709;DHT22;38606;52.986;6.980;2022-07-24T03:54:38;15.50;99.90
52709;DHT22;38606;52.986;6.980;2022-07-24T03:57:04;15.60;99.90
52709;DHT22;38606;52.986;6.980;2022-07-24T03:59:30;15.50;99.90
52709;DHT22;38606;52.986;6.980;2022-07-24T04:01:56;15.70;99.90
52709;DHT22;38606;52.986;6.980;2022-07-24T04:04:22;15.50;99.90
52709;DHT22;38606;52.986;6.980;2022-07-24T04:06:47;15.70;99.90
52709;DHT22;38606;52.986;6.980;2022-07-24T04:09:13;15.60;99.90
52709;DHT22;38606;52.986;6.980;2022-07-24T04:11:39;15.70;99.90
52709;DHT22;38606;52.986;6.980;2022-07-24T04:14:05;15.70;99.90
52709;DHT22;38606;52.986;6.980;2022-07-24T04:16:31;16.00;99.90
52709;DHT22;38606;52.986;6.980;2022-07-24T04:18:56;15.70;99.90
52709;DHT22;38606;52.986;6.980;2022-07-24T04:21:22;15.90;99.90
52709;DHT22;38606;52.986;6.980;2022-07-24T04:23:48;15.70;99.90
52709;DHT22;38606;52.986;6.980;2022-07-24T04:26:13;15.90;99.90
52709;DHT22;38606;52.986;6.980;2022-07-24T04:28:39;15.90;99.90
52709;DHT22;38606;52.986;6.980;2022-07-24T04:31:07;15.80;99.90
52709;DHT22;38606;52.986;6.980;2022-07-24T04:33:33;15.90;99.90
52709;DHT22;38606;52.986;6.980;2022-07-24T04:35:59;16.20;99.90
52709;DHT22;38606;52.986;6.980;2022-07-24T04:38:25;16.20;99.90
52709;DHT22;38606;52.986;6.980;2022-07-24T04:40:50;16.10;99.90
52709;DHT22;38606;52.986;6.980;2022-07-24T04:43:16;16.00;99.90
52709;DHT22;38606;52.986;6.980;2022-07-24T04:45:42;15.90;99.90
52709;DHT22;38606;52.986;6.980;2022-07-24T04:48:07;16.10;99.90
52709;DHT22;38606;52.986;6.980;2022-07-24T04:50:33;16.10;99.90
52709;DHT22;38606;52.986;6.980;2022-07-24T04:52:59;16.40;99.90
52709;DHT22;38606;52.986;6.980;2022-07-24T04:55:25;16.30;99.90
52709;DHT22;38606;52.986;6.980;2022-07-24T04:57:50;16.30;99.90
52709;DHT22;38606;52.986;6.980;2022-07-24T05:00:17;16.20;99.90
52709;DHT22;38606;52.986;6.980;2022-07-24T05:02:43;16.20;99.90
52709;DHT22;38606;52.986;6.980;2022-07-24T05:05:08;16.40;99.90
52709;DHT22;38606;52.986;6.980;2022-07-24T05:07:34;16.70;99.90
52709;DHT22;38606;52.986;6.980;2022-07-24T05:10:00;16.70;99.90
52709;DHT22;38606;52.986;6.980;2022-07-24T05:12:25;16.60;99.90
52709;DHT22;38606;52.986;6.980;2022-07-24T05:14:51;16.80;99.90
52709;DHT22;38606;52.986;6.980;2022-07-24T05:17:17;16.70;99.90
52709;DHT22;38606;52.986;6.980;2022-07-24T05:19:43;17.00;99.90
52709;DHT22;38606;52.986;6.980;2022-07-24T05:22:08;17.00;99.90
52709;DHT22;38606;52.986;6.980;2022-07-24T05:24:34;17.10;99.90
52709;DHT22;38606;52.986;6.980;2022-07-24T05:27:00;17.00;99.90
52709;DHT22;38606;52.986;6.980;2022-07-24T05:29:26;17.10;99.90
52709;DHT22;38606;52.986;6.980;2022-07-24T05:31:51;17.20;99.90
52709;DHT22;38606;52.986;6.980;2022-07-24T05:34:23;17.40;99.90
52709;DHT22;38606;52.986;6.980;2022-07-24T05:36:49;17.30;99.90
52709;DHT22;38606;52.986;6.980;2022-07-24T05:39:15;17.30;99.90
52709;DHT22;38606;52.986;6.980;2022-07-24T05:41:41;17.50;99.90
52709;DHT22;38606;52.986;6.980;2022-07-24T05:44:07;17.60;99.90
52709;DHT22;38606;52.986;6.980;2022-07-24T05:46:32;17.80;99.90
52709;DHT22;38606;52.986;6.980;2022-07-24T05:48:58;17.80;99.90
52709;DHT22;38606;52.986;6.980;2022-07-24T05:51:24;17.90;99.90
52709;DHT22;38606;52.986;6.980;2022-07-24T05:53:51;18.20;99.90
52709;DHT22;38606;52.986;6.980;2022-07-24T05:56:17;18.00;99.90
52709;DHT22;38606;52.986;6.980;2022-07-24T05:58:43;18.40;99.90
52709;DHT22;38606;52.986;6.980;2022-07-24T06:01:09;18.30;99.90
52709;DHT22;38606;52.986;6.980;2022-07-24T06:03:35;18.80;99.90
52709;DHT22;38606;52.986;6.980;2022-07-24T06:06:03;18.70;99.90
52709;DHT22;38606;52.986;6.980;2022-07-24T06:08:29;18.90;99.90
52709;DHT22;38606;52.986;6.980;2022-07-24T06:10:55;18.90;99.90
52709;DHT22;38606;52.986;6.980;2022-07-24T06:13:21;19.00;99.90
52709;DHT22;38606;52.986;6.980;2022-07-24T06:15:46;19.30;99.90
52709;DHT22;38606;52.986;6.980;2022-07-24T06:18:12;19.20;99.90
52709;DHT22;38606;52.986;6.980;2022-07-24T06:20:38;19.10;99.90
52709;DHT22;38606;52.986;6.980;2022-07-24T06:23:03;21.10;99.90
52709;DHT22;38606;52.986;6.980;2022-07-24T06:25:29;19.10;99.90
52709;DHT22;38606;52.986;6.980;2022-07-24T06:27:55;19.50;99.90
52709;DHT22;38606;52.986;6.980;2022-07-24T06:30:23;19.70;99.90
52709;DHT22;38606;52.986;6.980;2022-07-24T06:32:52;19.90;99.90
52709;DHT22;38606;52.986;6.980;2022-07-24T06:35:19;19.90;99.90
52709;DHT22;38606;52.986;6.980;2022-07-24T06:37:44;20.20;99.90
52709;DHT22;38606;52.986;6.980;2022-07-24T06:40:11;20.30;99.90
52709;DHT22;38606;52.986;6.980;2022-07-24T06:42:37;20.50;99.90
52709;DHT22;38606;52.986;6.980;2022-07-24T06:45:03;20.90;99.90
52709;DHT22;38606;52.986;6.980;2022-07-24T06:47:29;20.60;99.90
52709;DHT22;38606;52.986;6.980;2022-07-24T06:49:55;20.50;99.90
52709;DHT22;38606;52.986;6.980;2022-07-24T06:52:21;20.50;99.90
52709;DHT22;38606;52.986;6.980;2022-07-24T06:54:47;20.60;99.90
52709;DHT22;38606;52.986;6.980;2022-07-24T06:57:13;20.80;99.90
52709;DHT22;38606;52.986;6.980;2022-07-24T06:59:39;20.60;99.90
52709;DHT22;38606;52.986;6.980;2022-07-24T07:02:05;21.10;99.90
52709;DHT22;38606;52.986;6.980;2022-07-24T07:04:31;21.10;99.90
52709;DHT22;38606;52.986;6.980;2022-07-24T07:06:57;21.20;99.90
52709;DHT22;38606;52.986;6.980;2022-07-24T07:09:23;21.40;99.90
52709;DHT22;38606;52.986;6.980;2022-07-24T07:11:48;21.80;99.90
52709;DHT22;38606;52.986;6.980;2022-07-24T07:14:14;21.80;99.90
52709;DHT22;38606;52.986;6.980;2022-07-24T07:16:40;21.70;99.90
52709;DHT22;38606;52.986;6.980;2022-07-24T07:19:06;21.80;99.90
52709;DHT22;38606;52.986;6.980;2022-07-24T07:21:31;21.80;99.90
52709;DHT22;38606;52.986;6.980;2022-07-24T07:23:57;21.60;99.90
52709;DHT22;38606;52.986;6.980;2022-07-24T07:26:23;21.70;99.90
52709;DHT22;38606;52.986;6.980;2022-07-24T07:28:49;21.70;99.90
52709;DHT22;38606;52.986;6.980;2022-07-24T07:31:15;21.90;99.90
52709;DHT22;38606;52.986;6.980;2022-07-24T07:33:40;22.00;99.90
52709;DHT22;38606;52.986;6.980;2022-07-24T07:36:07;21.90;99.90
52709;DHT22;38606;52.986;6.980;2022-07-24T07:38:34;22.30;99.90
52709;DHT22;38606;52.986;6.980;2022-07-24T07:41:00;22.50;99.90
52709;DHT22;38606;52.986;6.980;2022-07-24T07:43:26;22.60;99.90
52709;DHT22;38606;52.986;6.980;2022-07-24T07:45:52;22.70;99.90
52709;DHT22;38606;52.986;6.980;2022-07-24T07:48:18;22.80;99.90
52709;DHT22;38606;52.986;6.980;2022-07-24T07:50:43;22.40;99.90
52709;DHT22;38606;52.986;6.980;2022-07-24T07:53:09;22.80;99.90
52709;DHT22;38606;52.986;6.980;2022-07-24T07:55:35;22.80;99.90
52709;DHT22;38606;52.986;6.980;2022-07-24T07:58:01;22.80;99.90
52709;DHT22;38606;52.986;6.980;2022-07-24T08:00:27;22.90;99.90
52709;DHT22;38606;52.986;6.980;2022-07-24T08:02:53;23.40;99.90
52709;DHT22;38606;52.986;6.980;2022-07-24T08:05:19;23.40;99.90
52709;DHT22;38606;52.986;6.980;2022-07-24T08:07:45;23.60;99.90
52709;DHT22;38606;52.986;6.980;2022-07-24T08:10:11;23.90;99.90
52709;DHT22;38606;52.986;6.980;2022-07-24T08:12:37;24.10;99.90
52709;DHT22;38606;52.986;6.980;2022-07-24T08:15:03;24.40;99.90
52709;DHT22;38606;52.986;6.980;2022-07-24T08:17:29;24.40;99.90
52709;DHT22;38606;52.986;6.980;2022-07-24T08:19:55;24.80;99.90
52709;DHT22;38606;52.986;6.980;2022-07-24T08:22:20;24.80;99.90
52709;DHT22;38606;52.986;6.980;2022-07-24T08:24:46;24.90;99.90
52709;DHT22;38606;52.986;6.980;2022-07-24T08:27:12;25.00;99.90
52709;DHT22;38606;52.986;6.980;2022-07-24T08:29:37;25.20;99.90
52709;DHT22;38606;52.986;6.980;2022-07-24T08:32:03;25.00;99.90
52709;DHT22;38606;52.986;6.980;2022-07-24T08:34:29;25.40;99.90
52709;DHT22;38606;52.986;6.980;2022-07-24T08:36:55;25.10;99.90
52709;DHT22;38606;52.986;6.980;2022-07-24T08:39:20;25.30;99.90
52709;DHT22;38606;52.986;6.980;2022-07-24T08:41:46;25.40;99.90
52709;DHT22;38606;52.986;6.980;2022-07-24T08:44:12;25.50;99.90
52709;DHT22;38606;52.986;6.980;2022-07-24T08:46:40;25.50;99.90
52709;DHT22;38606;52.986;6.980;2022-07-24T08:49:15;25.40;99.90
52709;DHT22;38606;52.986;6.980;2022-07-24T08:51:43;25.60;99.90
52709;DHT22;38606;52.986;6.980;2022-07-24T08:54:10;25.70;99.90
52709;DHT22;38606;52.986;6.980;2022-07-24T08:56:40;25.80;99.90
52709;DHT22;38606;52.986;6.980;2022-07-24T08:59:15;25.80;99.90
52709;DHT22;38606;52.986;6.980;2022-07-24T09:01:42;26.10;99.90
52709;DHT22;38606;52.986;6.980;2022-07-24T09:04:38;26.30;99.90
52709;DHT22;38606;52.986;6.980;2022-07-24T09:07:12;26.40;99.20
52709;DHT22;38606;52.986;6.980;2022-07-24T09:09:40;26.30;99.70
52709;DHT22;38606;52.986;6.980;2022-07-24T09:12:10;26.50;98.90
52709;DHT22;38606;52.986;6.980;2022-07-24T09:14:40;26.50;98.40
52709;DHT22;38606;52.986;6.980;2022-07-24T09:17:14;26.70;97.80
52709;DHT22;38606;52.986;6.980;2022-07-24T09:27:37;26.80;94.80
52709;DHT22;38606;52.986;6.980;2022-07-24T09:30:05;26.80;95.20
52709;DHT22;38606;52.986;6.980;2022-07-24T09:32:31;27.20;94.50
52709;DHT22;38606;52.986;6.980;2022-07-24T09:34:57;26.90;94.60
52709;DHT22;38606;52.986;6.980;2022-07-24T09:37:26;27.00;94.20
52709;DHT22;38606;52.986;6.980;2022-07-24T09:39:52;27.00;93.70
52709;DHT22;38606;52.986;6.980;2022-07-24T09:42:29;27.00;93.50
52709;DHT22;38606;52.986;6.980;2022-07-24T09:44:58;27.10;93.20
52709;DHT22;38606;52.986;6.980;2022-07-24T09:47:24;26.40;93.00
52709;DHT22;38606;52.986;6.980;2022-07-24T09:49:50;27.30;93.20
52709;DHT22;38606;52.986;6.980;2022-07-24T09:52:21;27.20;93.30
52709;DHT22;38606;52.986;6.980;2022-07-24T09:54:50;27.10;93.40
52709;DHT22;38606;52.986;6.980;2022-07-24T09:57:29;27.30;92.80
52709;DHT22;38606;52.986;6.980;2022-07-24T09:59:57;27.30;92.30
52709;DHT22;38606;52.986;6.980;2022-07-24T10:02:33;27.30;91.70
52709;DHT22;38606;52.986;6.980;2022-07-24T10:05:01;27.40;91.80
52709;DHT22;38606;52.986;6.980;2022-07-24T10:07:29;27.40;91.70
52709;DHT22;38606;52.986;6.980;2022-07-24T10:09:58;27.30;91.30
52709;DHT22;38606;52.986;6.980;2022-07-24T10:12:29;27.50;91.40
52709;DHT22;38606;52.986;6.980;2022-07-24T10:14:57;27.50;90.50
52709;DHT22;38606;52.986;6.980;2022-07-24T10:20:36;27.60;90.80
52709;DHT22;38606;52.986;6.980;2022-07-24T10:23:05;27.20;90.30
52709;DHT22;38606;52.986;6.980;2022-07-24T10:28:35;27.70;90.60
52709;DHT22;38606;52.986;6.980;2022-07-24T10:31:04;27.60;90.30
52709;DHT22;38606;52.986;6.980;2022-07-24T10:33:31;27.70;90.60
52709;DHT22;38606;52.986;6.980;2022-07-24T10:36:00;27.80;91.70
52709;DHT22;38606;52.986;6.980;2022-07-24T10:38:33;27.60;91.00
52709;DHT22;38606;52.986;6.980;2022-07-24T10:41:10;28.00;90.80
52709;DHT22;38606;52.986;6.980;2022-07-24T10:43:38;27.70;90.30
52709;DHT22;38606;52.986;6.980;2022-07-24T10:48:32;27.80;89.10
52709;DHT22;38606;52.986;6.980;2022-07-24T10:53:30;28.20;88.50
52709;DHT22;38606;52.986;6.980;2022-07-24T10:56:26;27.90;89.50
52709;DHT22;38606;52.986;6.980;2022-07-24T11:01:40;27.90;89.20
52709;DHT22;38606;52.986;6.980;2022-07-24T11:06:46;28.60;89.40
52709;DHT22;38606;52.986;6.980;2022-07-24T11:09:14;28.60;88.70
52709;DHT22;38606;52.986;6.980;2022-07-24T11:11:42;28.30;87.30
52709;DHT22;38606;52.986;6.980;2022-07-24T11:14:08;28.50;87.00
52709;DHT22;38606;52.986;6.980;2022-07-24T11:16:34;28.50;86.80
52709;DHT22;38606;52.986;6.980;2022-07-24T11:26:52;29.10;84.10
52709;DHT22;38606;52.986;6.980;2022-07-24T11:29:21;29.00;84.20
52709;DHT22;38606;52.986;6.980;2022-07-24T11:31:52;29.00;84.20
52709;DHT22;38606;52.986;6.980;2022-07-24T11:34:18;29.00;84.60
52709;DHT22;38606;52.986;6.980;2022-07-24T11:36:46;29.20;84.30
52709;DHT22;38606;52.986;6.980;2022-07-24T11:39:16;28.80;83.50
52709;DHT22;38606;52.986;6.980;2022-07-24T11:41:47;28.90;82.80
52709;DHT22;38606;52.986;6.980;2022-07-24T11:44:14;29.00;83.10
52709;DHT22;38606;52.986;6.980;2022-07-24T11:46:41;28.90;82.90
52709;DHT22;38606;52.986;6.980;2022-07-24T11:49:09;28.70;83.00
52709;DHT22;38606;52.986;6.980;2022-07-24T11:51:42;28.90;83.20
52709;DHT22;38606;52.986;6.980;2022-07-24T11:54:09;28.70;82.50
52709;DHT22;38606;52.986;6.980;2022-07-24T11:56:36;28.80;82.90
52709;DHT22;38606;52.986;6.980;2022-07-24T11:59:02;28.60;82.30
52709;DHT22;38606;52.986;6.980;2022-07-24T12:01:28;28.60;82.80
52709;DHT22;38606;52.986;6.980;2022-07-24T12:03:59;28.70;82.70
52709;DHT22;38606;52.986;6.980;2022-07-24T12:06:26;28.60;83.70
52709;DHT22;38606;52.986;6.980;2022-07-24T12:09:08;28.70;83.00
52709;DHT22;38606;52.986;6.980;2022-07-24T12:11:34;28.80;81.60
52709;DHT22;38606;52.986;6.980;2022-07-24T12:14:05;28.70;82.90
52709;DHT22;38606;52.986;6.980;2022-07-24T12:16:37;29.00;82.10
52709;DHT22;38606;52.986;6.980;2022-07-24T12:19:16;28.50;81.40
52709;DHT22;38606;52.986;6.980;2022-07-24T12:21:44;28.90;81.80
52709;DHT22;38606;52.986;6.980;2022-07-24T12:24:10;28.80;82.00
52709;DHT22;38606;52.986;6.980;2022-07-24T12:26:54;29.00;82.40
52709;DHT22;38606;52.986;6.980;2022-07-24T12:29:20;28.80;81.50
52709;DHT22;38606;52.986;6.980;2022-07-24T12:31:46;28.90;79.70
52709;DHT22;38606;52.986;6.980;2022-07-24T12:34:12;29.00;79.20
52709;DHT22;38606;52.986;6.980;2022-07-24T12:36:38;28.60;77.40
52709;DHT22;38606;52.986;6.980;2022-07-24T12:39:06;29.10;78.10
52709;DHT22;38606;52.986;6.980;2022-07-24T12:41:44;29.00;77.00
52709;DHT22;38606;52.986;6.980;2022-07-24T12:44:10;29.30;76.50
52709;DHT22;38606;52.986;6.980;2022-07-24T12:46:37;29.00;77.50
52709;DHT22;38606;52.986;6.980;2022-07-24T12:49:08;29.20;78.70
52709;DHT22;38606;52.986;6.980;2022-07-24T12:52:03;29.00;78.50
52709;DHT22;38606;52.986;6.980;2022-07-24T12:54:31;29.20;78.80
52709;DHT22;38606;52.986;6.980;2022-07-24T12:57:16;28.90;79.50
52709;DHT22;38606;52.986;6.980;2022-07-24T12:59:47;29.00;80.10
52709;DHT22;38606;52.986;6.980;2022-07-24T13:02:22;28.90;79.20
52709;DHT22;38606;52.986;6.980;2022-07-24T13:04:54;29.00;77.90
52709;DHT22;38606;52.986;6.980;2022-07-24T13:07:23;28.80;79.60
52709;DHT22;38606;52.986;6.980;2022-07-24T13:09:49;28.80;79.50
52709;DHT22;38606;52.986;6.980;2022-07-24T13:12:16;29.00;78.30
52709;DHT22;38606;52.986;6.980;2022-07-24T13:14:42;29.00;78.60
52709;DHT22;38606;52.986;6.980;2022-07-24T13:17:16;28.90;79.00
52709;DHT22;38606;52.986;6.980;2022-07-24T13:19:44;29.30;79.60
52709;DHT22;38606;52.986;6.980;2022-07-24T13:22:10;29.00;78.80
52709;DHT22;38606;52.986;6.980;2022-07-24T13:24:37;29.00;78.60
52709;DHT22;38606;52.986;6.980;2022-07-24T13:27:04;29.00;78.50
52709;DHT22;38606;52.986;6.980;2022-07-24T13:29:30;29.20;78.60
52709;DHT22;38606;52.986;6.980;2022-07-24T13:31:56;29.30;78.60
52709;DHT22;38606;52.986;6.980;2022-07-24T13:34:23;29.30;78.10
52709;DHT22;38606;52.986;6.980;2022-07-24T13:36:49;29.10;77.30
52709;DHT22;38606;52.986;6.980;2022-07-24T13:39:15;29.10;77.90
52709;DHT22;38606;52.986;6.980;2022-07-24T13:41:41;29.50;78.20
52709;DHT22;38606;52.986;6.980;2022-07-24T13:44:07;29.30;77.90
52709;DHT22;38606;52.986;6.980;2022-07-24T13:46:34;29.20;77.60
52709;DHT22;38606;52.986;6.980;2022-07-24T13:49:01;29.30;78.00
52709;DHT22;38606;52.986;6.980;2022-07-24T13:51:27;29.50;78.00
52709;DHT22;38606;52.986;6.980;2022-07-24T13:53:53;29.50;78.10
52709;DHT22;38606;52.986;6.980;2022-07-24T13:56:19;29.20;78.10
52709;DHT22;38606;52.986;6.980;2022-07-24T13:58:47;29.30;78.00
52709;DHT22;38606;52.986;6.980;2022-07-24T14:01:14;29.40;78.70
52709;DHT22;38606;52.986;6.980;2022-07-24T14:03:40;29.40;78.40
52709;DHT22;38606;52.986;6.980;2022-07-24T14:06:08;29.20;77.50
52709;DHT22;38606;52.986;6.980;2022-07-24T14:08:34;29.30;78.10
52709;DHT22;38606;52.986;6.980;2022-07-24T14:11:00;29.20;78.00
52709;DHT22;38606;52.986;6.980;2022-07-24T14:13:25;29.00;78.70
52709;DHT22;38606;52.986;6.980;2022-07-24T14:15:51;29.00;77.90
52709;DHT22;38606;52.986;6.980;2022-07-24T14:18:17;29.20;78.40
52709;DHT22;38606;52.986;6.980;2022-07-24T14:20:43;29.40;78.50
52709;DHT22;38606;52.986;6.980;2022-07-24T14:23:08;29.10;78.50
52709;DHT22;38606;52.986;6.980;2022-07-24T14:25:34;28.90;78.90
52709;DHT22;38606;52.986;6.980;2022-07-24T14:28:01;29.20;79.00
52709;DHT22;38606;52.986;6.980;2022-07-24T14:30:27;31.60;80.60
52709;DHT22;38606;52.986;6.980;2022-07-24T14:32:53;29.10;78.70
52709;DHT22;38606;52.986;6.980;2022-07-24T14:35:18;29.40;79.00
52709;DHT22;38606;52.986;6.980;2022-07-24T14:37:44;29.20;78.50
52709;DHT22;38606;52.986;6.980;2022-07-24T14:40:10;29.10;78.50
52709;DHT22;38606;52.986;6.980;2022-07-24T14:42:36;29.40;78.40
52709;DHT22;38606;52.986;6.980;2022-07-24T14:45:02;29.40;78.50
52709;DHT22;38606;52.986;6.980;2022-07-24T14:47:28;29.40;78.30
52709;DHT22;38606;52.986;6.980;2022-07-24T14:49:54;29.20;78.30
52709;DHT22;38606;52.986;6.980;2022-07-24T14:52:21;29.20;78.20
52709;DHT22;38606;52.986;6.980;2022-07-24T14:54:48;29.30;79.40
52709;DHT22;38606;52.986;6.980;2022-07-24T14:57:14;29.30;79.10
52709;DHT22;38606;52.986;6.980;2022-07-24T14:59:40;29.30;78.50
52709;DHT22;38606;52.986;6.980;2022-07-24T15:02:07;29.50;78.00
52709;DHT22;38606;52.986;6.980;2022-07-24T15:04:34;29.40;77.70
52709;DHT22;38606;52.986;6.980;2022-07-24T15:07:00;29.20;77.30
52709;DHT22;38606;52.986;6.980;2022-07-24T15:09:26;29.20;77.70
52709;DHT22;38606;52.986;6.980;2022-07-24T15:11:51;28.90;76.40
52709;DHT22;38606;52.986;6.980;2022-07-24T15:14:17;29.00;77.00
52709;DHT22;38606;52.986;6.980;2022-07-24T15:16:43;29.20;78.20
52709;DHT22;38606;52.986;6.980;2022-07-24T15:19:09;28.80;77.00
52709;DHT22;38606;52.986;6.980;2022-07-24T15:21:36;29.20;77.70
52709;DHT22;38606;52.986;6.980;2022-07-24T15:24:03;29.20;78.30
52709;DHT22;38606;52.986;6.980;2022-07-24T15:26:29;28.80;77.30
52709;DHT22;38606;52.986;6.980;2022-07-24T15:28:55;29.00;77.70
52709;DHT22;38606;52.986;6.980;2022-07-24T15:31:20;28.80;77.30
52709;DHT22;38606;52.986;6.980;2022-07-24T15:33:47;28.80;77.50
52709;DHT22;38606;52.986;6.980;2022-07-24T15:36:13;29.00;77.70
52709;DHT22;38606;52.986;6.980;2022-07-24T15:38:39;28.90;77.20
52709;DHT22;38606;52.986;6.980;2022-07-24T15:41:05;28.60;77.10
52709;DHT22;38606;52.986;6.980;2022-07-24T15:43:31;28.80;78.50
52709;DHT22;38606;52.986;6.980;2022-07-24T15:45:57;28.50;78.30
52709;DHT22;38606;52.986;6.980;2022-07-24T15:48:23;28.60;78.80
52709;DHT22;38606;52.986;6.980;2022-07-24T15:50:49;28.50;78.30
52709;DHT22;38606;52.986;6.980;2022-07-24T15:53:15;28.70;79.00
52709;DHT22;38606;52.986;6.980;2022-07-24T15:55:41;28.90;78.60
52709;DHT22;38606;52.986;6.980;2022-07-24T15:58:07;28.80;78.90
52709;DHT22;38606;52.986;6.980;2022-07-24T16:00:33;28.90;78.90